»·PEaware :: ACA792 CYVR-KPDX

ACA792 :: CYVR-KPDX

FLIGHT INFORMATION

Flight Status: Arrived
Operator:
Air Canada
More flights by this operator :: More flights under this callsign
Pilot: Jamie M. (26320)
Aircraft: Unknown
(B788)
More flights by this aircraft type
Origin: CYVR Vancouver Intl
Canada
Destination: KPDX Portland Intl
United States
More flights between these airports :: More routes between these airports
Route: YVR SEA BUWZO KRATR2
File this flight plan on PilotEdge
Remarks: RMK / SIMBRIEF
Altitude:
(Current/Filed)
31,000ft
Speed:
(Current/Filed)
457kts
Departed: 06-Oct-19 04:28 PM
Arrived: 06-Oct-19 05:10 PM
Distance/Time
Traveled:
218nm/0:42
Distance/Time
To Go:
Arrived

Flight Plot

Page will automatically refresh every two minutes.


Map Options




Map Legend


Flown Route
Filed Route
Departure Airport
Arrival Airport
Navaid (VOR, NDB)
Fix

Horizontal Profiles

Position Reports

Time Latitude Longitude Heading Altitude Ground
Speed
06-Oct-19 15:57 49.196247 -123.183723 190 27ft 0kts
06-Oct-19 15:58 49.196247 -123.183723 190 27ft 0kts
06-Oct-19 15:59 49.196247 -123.183723 190 27ft 0kts
06-Oct-19 15:59 49.196247 -123.183723 190 27ft 0kts
06-Oct-19 16:00 49.196247 -123.183723 190 27ft 0kts
06-Oct-19 16:02 49.196247 -123.183723 190 27ft 0kts
06-Oct-19 16:02 49.196247 -123.183723 190 27ft 0kts
06-Oct-19 16:03 49.196247 -123.183723 190 27ft 0kts
06-Oct-19 16:05 49.196247 -123.183723 190 27ft 0kts
06-Oct-19 16:05 49.196247 -123.183723 190 27ft 0kts
06-Oct-19 16:06 49.196247 -123.183723 190 27ft 0kts
06-Oct-19 16:07 49.196247 -123.183723 190 27ft 0kts
06-Oct-19 16:08 49.196247 -123.183723 190 27ft 0kts
06-Oct-19 16:09 49.196247 -123.183723 190 27ft 0kts
06-Oct-19 16:10 49.196247 -123.183723 190 27ft 0kts
06-Oct-19 16:11 49.196247 -123.183723 190 27ft 0kts
06-Oct-19 16:12 49.196247 -123.183723 190 27ft 0kts
06-Oct-19 16:13 49.196247 -123.183723 190 27ft 0kts
06-Oct-19 16:14 49.196247 -123.183723 190 27ft 0kts
06-Oct-19 16:15 49.196247 -123.183723 190 27ft 0kts
06-Oct-19 16:16 49.196249 -123.183723 190 27ft 0kts
06-Oct-19 16:17 49.196732 -123.183298 243 27ft 2kts
06-Oct-19 16:18 49.196799 -123.182915 280 27ft 0kts
06-Oct-19 16:19 49.196799 -123.182920 280 27ft 0kts
06-Oct-19 16:20 49.196683 -123.186630 201 27ft 12kts
06-Oct-19 16:21 49.192430 -123.187249 192 27ft 18kts
06-Oct-19 16:22 49.189209 -123.181702 99 27ft 22kts
06-Oct-19 16:23 49.187972 -123.170507 99 27ft 29kts
06-Oct-19 16:24 49.186870 -123.162621 129 27ft 18kts
06-Oct-19 16:25 49.186135 -123.161530 137 27ft 0kts
06-Oct-19 16:26 49.184799 -123.160987 257 27ft 11kts
06-Oct-19 16:27 49.186880 -123.179778 279 28ft 138kts
06-Oct-19 16:28 49.192968 -123.245953 262 1975ft 172kts
06-Oct-19 16:29 49.152787 -123.252054 138 3556ft 200kts
06-Oct-19 16:30 49.103701 -123.184979 138 5672ft 264kts
06-Oct-19 16:31 49.038560 -123.128814 161 8949ft 279kts
06-Oct-19 16:32 48.962611 -123.088399 163 10680ft 291kts
06-Oct-19 16:33 48.875561 -123.042754 165 12319ft 363kts
06-Oct-19 16:34 48.775878 -122.990537 165 15119ft 389kts
06-Oct-19 16:35 48.670675 -122.935729 165 17789ft 410kts
06-Oct-19 16:36 48.560058 -122.878302 166 20284ft 427kts
06-Oct-19 16:37 48.445884 -122.819421 167 22554ft 443kts
06-Oct-19 16:38 48.327376 -122.758549 167 24670ft 457kts
06-Oct-19 16:39 48.204799 -122.695897 167 26558ft 471kts
06-Oct-19 16:40 48.078946 -122.631865 167 28223ft 483kts
06-Oct-19 16:41 47.949959 -122.566639 167 29737ft 494kts
06-Oct-19 16:42 47.817981 -122.500206 167 31065ft 504kts
06-Oct-19 16:43 47.685055 -122.433653 167 31310ft 506kts
06-Oct-19 16:44 47.551920 -122.367335 167 31274ft 506kts
06-Oct-19 16:45 47.417463 -122.319499 181 30427ft 490kts
06-Oct-19 16:46 47.283470 -122.310635 185 29339ft 473kts
06-Oct-19 16:47 47.153868 -122.310005 185 27949ft 459kts
06-Oct-19 16:48 47.027321 -122.309732 185 26536ft 449kts
06-Oct-19 16:49 46.904030 -122.309577 185 25131ft 439kts
06-Oct-19 16:50 46.783552 -122.309562 185 24284ft 430kts
06-Oct-19 16:51 46.664335 -122.309562 184 21717ft 418kts
06-Oct-19 16:52 46.550634 -122.309549 184 19994ft 403kts
06-Oct-19 16:53 46.440009 -122.309560 184 18473ft 392kts
06-Oct-19 16:54 46.332275 -122.309574 184 16844ft 383kts
06-Oct-19 16:55 46.229145 -122.329101 201 15410ft 371kts
06-Oct-19 16:56 46.133587 -122.378899 203 13881ft 358kts
06-Oct-19 16:57 46.041503 -122.428845 203 12256ft 349kts
06-Oct-19 16:58 45.951958 -122.477061 201 10058ft 336kts
06-Oct-19 16:59 45.861960 -122.469075 164 7633ft 337kts
06-Oct-19 17:00 45.776131 -122.439519 166 6059ft 284kts
06-Oct-19 17:01 45.706250 -122.415142 152 5961ft 239kts
06-Oct-19 17:02 45.662710 -122.350665 131 5974ft 224kts
06-Oct-19 17:03 45.615749 -122.300493 167 5613ft 197kts
06-Oct-19 17:04 45.566279 -122.321718 210 4286ft 197kts
06-Oct-19 17:05 45.531362 -122.378935 251 3284ft 190kts
06-Oct-19 17:06 45.537467 -122.450774 301 1801ft 179kts
06-Oct-19 17:07 45.561694 -122.511151 300 756ft 171kts
06-Oct-19 17:08 45.583789 -122.567466 300 97ft 150kts
06-Oct-19 17:09 45.592631 -122.590966 265 43ft 11kts
06-Oct-19 17:10 45.592592 -122.592107 267 43ft 9kts
06-Oct-19 17:11 45.593155 -122.596957 237 43ft 8kts
06-Oct-19 17:12 45.590398 -122.601565 207 43ft 15kts
06-Oct-19 17:13 45.589170 -122.599127 35 43ft 7kts
06-Oct-19 17:14 45.589443 -122.598890 30 43ft 0kts
06-Oct-19 17:15 45.589443 -122.598890 30 43ft 0kts
06-Oct-19 17:16 45.589443 -122.598890 30 43ft 0kts

Navigation Log

Ident Type
Flight plan parsing failed, navigation log unavailable